Time;durP1;ratioP1;P1;durP2;ratioP2;P2;SDS_P1;SDS_P2;PMS_P1;PMS_P2;Temp;Humidity;BMP_temperature;BMP_pressure;BME280_temperature;BME280_humidity;BME280_pressure;Samples;Min_cycle;Max_cycle;Signal;HPM_P1;HPM_P2
2022/02/19 00:01:24;;;;;;;;;1.00;0.50;;;;;;;;5081350;27;45303;-77
2022/02/19 00:03:50;;;;;;;;;1.75;0.50;;;;;;;;5079322;27;45532;-76
2022/02/19 00:06:16;;;;;;;;;1.75;1.75;;;;;;;;5080034;27;45461;-75
2022/02/19 00:08:41;;;;;;;;;0.75;0.75;;;;;;;;5078610;27;46202;-77
2022/02/19 00:11:07;;;;;;;;;0.75;0.00;;;;;;;;5075478;27;45287;-76
2022/02/19 00:13:32;;;;;;;;;0.00;0.00;;;;;;;;5081450;27;45405;-76
2022/02/19 00:15:57;;;;;;;;;1.00;1.00;;;;;;;;5079404;27;45421;-76
2022/02/19 00:18:23;;;;;;;;;0.00;0.00;;;;;;;;5079299;27;45314;-76
2022/02/19 00:20:48;;;;;;;;;0.00;0.00;;;;;;;;5079573;27;45375;-76
2022/02/19 00:23:13;;;;;;;;;1.50;0.00;;;;;;;;5074943;27;45768;-77
2022/02/19 00:25:39;;;;;;;;;1.25;0.00;;;;;;;;5063368;28;45564;-77
2022/02/19 00:28:04;;;;;;;;;0.50;0.25;;;;;;;;5060743;27;47109;-78
2022/02/19 00:30:29;;;;;;;;;1.00;1.00;;;;;;;;5079893;27;45422;-83
2022/02/19 00:32:54;;;;;;;;;1.00;0.00;;;;;;;;5062418;27;45484;-86
2022/02/19 00:35:21;;;;;;;;;0.00;0.00;;;;;;;;5079630;27;45420;-79
2022/02/19 00:37:46;;;;;;;;;1.50;1.00;;;;;;;;5079419;27;46222;-76
2022/02/19 00:40:12;;;;;;;;;0.50;0.50;;;;;;;;5079991;27;45404;-74
2022/02/19 00:42:37;;;;;;;;;1.75;1.00;;;;;;;;5079375;27;45761;-75
2022/02/19 00:45:02;;;;;;;;;0.00;0.00;;;;;;;;5079119;27;45573;-73
2022/02/19 00:47:27;;;;;;;;;1.50;0.50;;;;;;;;5076335;27;45900;-75
2022/02/19 00:49:53;;;;;;;;;0.00;0.00;;;;;;;;5078213;27;45445;-73
2022/02/19 00:52:18;;;;;;;;;1.00;1.00;;;;;;;;5079655;27;45546;-75
2022/02/19 00:54:43;;;;;;;;;2.50;0.75;;;;;;;;5060556;28;45411;-75
2022/02/19 00:57:08;;;;;;;;;0.00;0.00;;;;;;;;5078798;27;46703;-75
2022/02/19 00:59:34;;;;;;;;;2.25;1.00;;;;;;;;5076973;27;45488;-76
2022/02/19 01:01:59;;;;;;;;;0.00;0.00;;;;;;;;5076505;27;45423;-75
2022/02/19 01:04:24;;;;;;;;;3.00;1.00;;;;;;;;5062479;28;45602;-75
2022/02/19 01:06:49;;;;;;;;;1.50;0.50;;;;;;;;5078306;27;46198;-75
2022/02/19 01:09:15;;;;;;;;;2.25;0.50;;;;;;;;5078399;27;45589;-74
2022/02/19 01:11:40;;;;;;;;;0.00;0.00;;;;;;;;5077776;27;45367;-76
2022/02/19 01:14:07;;;;;;;;;1.00;1.00;;;;;;;;5075070;27;45709;-75
2022/02/19 01:16:32;;;;;;;;;2.00;1.00;;;;;;;;5080111;27;45447;-75
2022/02/19 01:18:57;;;;;;;;;2.25;0.25;;;;;;;;5078416;27;45579;-75
2022/02/19 01:21:22;;;;;;;;;4.75;1.25;;;;;;;;5078270;27;47097;-75
2022/02/19 01:23:48;;;;;;;;;2.00;0.00;;;;;;;;5078616;27;45469;-75
2022/02/19 01:26:13;;;;;;;;;0.75;0.00;;;;;;;;5073964;28;46297;-75
2022/02/19 01:28:38;;;;;;;;;1.00;1.00;;;;;;;;5080423;27;45399;-74
2022/02/19 01:31:04;;;;;;;;;1.50;0.25;;;;;;;;5078538;27;45395;-74
2022/02/19 01:33:29;;;;;;;;;1.50;0.00;;;;;;;;5078505;27;45482;-76
2022/02/19 01:35:55;;;;;;;;;0.00;0.00;;;;;;;;5077977;27;46532;-76
2022/02/19 01:38:20;;;;;;;;;5.75;1.25;;;;;;;;5074627;27;45359;-76
2022/02/19 01:40:45;;;;;;;;;0.50;0.50;;;;;;;;5078960;27;45375;-77
2022/02/19 01:43:11;;;;;;;;;0.00;0.00;;;;;;;;5078637;27;45418;-74
2022/02/19 01:45:36;;;;;;;;;0.75;0.50;;;;;;;;5078424;27;45562;-76
2022/02/19 01:48:01;;;;;;;;;0.50;0.50;;;;;;;;5078089;27;45457;-76
2022/02/19 01:50:26;;;;;;;;;2.25;1.00;;;;;;;;5075302;27;47958;-76
2022/02/19 01:52:52;;;;;;;;;2.25;1.00;;;;;;;;5078126;27;45516;-76
2022/02/19 01:55:17;;;;;;;;;0.50;0.00;;;;;;;;5080764;27;46474;-75
2022/02/19 01:57:43;;;;;;;;;4.75;2.00;;;;;;;;5082502;27;45460;-73
2022/02/19 02:00:09;;;;;;;;;1.75;0.75;;;;;;;;5082755;27;45278;-76
2022/02/19 02:02:34;;;;;;;;;2.00;0.00;;;;;;;;5082559;27;45297;-75
2022/02/19 02:05:00;;;;;;;;;2.00;1.00;;;;;;;;5080135;27;47140;-76
2022/02/19 02:07:25;;;;;;;;;0.50;0.50;;;;;;;;5080107;27;45315;-76
2022/02/19 02:09:51;;;;;;;;;0.25;0.00;;;;;;;;5079076;27;45455;-76
2022/02/19 02:12:16;;;;;;;;;1.00;1.00;;;;;;;;5079297;27;45498;-75
2022/02/19 02:14:42;;;;;;;;;2.00;1.00;;;;;;;;5077382;27;46122;-75
2022/02/19 02:17:08;;;;;;;;;1.00;1.00;;;;;;;;5074669;27;45289;-76
2022/02/19 02:19:34;;;;;;;;;1.75;0.75;;;;;;;;5079737;27;45246;-75
2022/02/19 02:21:59;;;;;;;;;1.00;1.00;;;;;;;;5078032;27;45484;-75
2022/02/19 02:24:25;;;;;;;;;2.00;0.00;;;;;;;;5077564;27;46093;-75
2022/02/19 02:26:50;;;;;;;;;2.00;1.00;;;;;;;;5077585;27;45304;-75
2022/02/19 02:29:16;;;;;;;;;1.00;1.00;;;;;;;;5073220;28;45545;-75
2022/02/19 02:31:41;;;;;;;;;2.75;0.50;;;;;;;;5086659;27;45351;-75
2022/02/19 02:34:06;;;;;;;;;2.00;1.00;;;;;;;;5077659;27;47007;-75
2022/02/19 02:36:31;;;;;;;;;1.25;0.00;;;;;;;;5077401;27;45624;-75
2022/02/19 02:38:58;;;;;;;;;2.25;1.00;;;;;;;;5077622;27;45482;-75
2022/02/19 02:41:23;;;;;;;;;0.25;0.25;;;;;;;;5073984;27;45346;-75
2022/02/19 02:43:49;;;;;;;;;0.25;0.25;;;;;;;;5077653;27;45429;-75
2022/02/19 02:46:14;;;;;;;;;0.25;0.00;;;;;;;;5078194;27;45500;-75
2022/02/19 02:48:39;;;;;;;;;0.50;0.50;;;;;;;;5077137;27;45361;-75
2022/02/19 02:51:05;;;;;;;;;2.50;0.00;;;;;;;;5077734;27;45367;-75
2022/02/19 02:53:30;;;;;;;;;1.00;0.00;;;;;;;;5078541;27;46005;-75
2022/02/19 02:55:56;;;;;;;;;0.00;0.00;;;;;;;;5079338;27;45390;-75
2022/02/19 02:58:21;;;;;;;;;1.00;1.00;;;;;;;;5082919;27;45355;-75
2022/02/19 03:00:46;;;;;;;;;3.50;1.00;;;;;;;;5080868;27;45548;-75
2022/02/19 03:03:12;;;;;;;;;0.00;0.00;;;;;;;;5080395;27;46897;-75
2022/02/19 03:05:37;;;;;;;;;1.00;1.00;;;;;;;;5079218;27;45460;-75
2022/02/19 03:08:02;;;;;;;;;1.75;1.00;;;;;;;;5078006;27;47220;-74
2022/02/19 03:10:27;;;;;;;;;0.25;0.00;;;;;;;;5082808;27;45481;-75
2022/02/19 03:12:53;;;;;;;;;3.00;0.25;;;;;;;;5080860;27;46966;-74
2022/02/19 03:15:19;;;;;;;;;0.50;0.00;;;;;;;;5080411;27;45509;-75
2022/02/19 03:17:45;;;;;;;;;0.00;0.00;;;;;;;;5080585;27;45455;-75
2022/02/19 03:20:13;;;;;;;;;1.00;0.00;;;;;;;;5058399;28;45578;-75
2022/02/19 03:22:38;;;;;;;;;0.00;0.00;;;;;;;;5082743;27;46260;-75
2022/02/19 03:25:03;;;;;;;;;0.50;0.25;;;;;;;;5080464;27;45373;-76
2022/02/19 03:27:28;;;;;;;;;1.00;1.00;;;;;;;;5080722;27;45362;-75
2022/02/19 03:29:54;;;;;;;;;0.00;0.00;;;;;;;;5080662;27;45363;-75
2022/02/19 03:32:19;;;;;;;;;0.75;0.00;;;;;;;;5076540;27;46695;-75
2022/02/19 03:34:44;;;;;;;;;1.00;0.00;;;;;;;;5081890;27;45342;-75
2022/02/19 03:37:09;;;;;;;;;0.50;0.00;;;;;;;;5080878;27;45387;-75
2022/02/19 03:39:34;;;;;;;;;0.25;0.00;;;;;;;;5080461;27;45382;-75
2022/02/19 03:42:00;;;;;;;;;5.25;0.75;;;;;;;;5080196;27;46227;-75
2022/02/19 03:44:25;;;;;;;;;1.00;0.75;;;;;;;;5077258;27;45535;-75
2022/02/19 03:46:50;;;;;;;;;0.75;0.75;;;;;;;;5080467;27;45346;-75
2022/02/19 03:49:15;;;;;;;;;0.75;0.75;;;;;;;;5081293;27;45365;-75
2022/02/19 03:51:41;;;;;;;;;1.75;0.75;;;;;;;;5080219;27;46247;-76
2022/02/19 03:54:06;;;;;;;;;1.00;0.00;;;;;;;;5080264;27;45518;-75
2022/02/19 03:56:31;;;;;;;;;1.00;1.00;;;;;;;;5078085;27;45820;-75
2022/02/19 03:58:57;;;;;;;;;0.00;0.00;;;;;;;;5077858;27;45458;-75
2022/02/19 04:01:22;;;;;;;;;0.25;0.25;;;;;;;;5081442;27;46846;-76
2022/02/19 04:03:47;;;;;;;;;3.00;1.00;;;;;;;;5079058;27;45395;-76
2022/02/19 04:06:12;;;;;;;;;1.00;0.25;;;;;;;;5079919;27;45493;-75
2022/02/19 04:08:37;;;;;;;;;2.00;0.50;;;;;;;;5078658;27;45292;-76
2022/02/19 04:11:03;;;;;;;;;2.50;1.25;;;;;;;;5076484;27;45938;-76
2022/02/19 04:13:28;;;;;;;;;3.00;0.25;;;;;;;;5081742;27;45605;-76
2022/02/19 04:15:53;;;;;;;;;1.00;0.00;;;;;;;;5078883;27;45288;-76
2022/02/19 04:18:18;;;;;;;;;0.00;0.00;;;;;;;;5079595;27;47038;-76
2022/02/19 04:20:43;;;;;;;;;2.00;1.00;;;;;;;;5079268;27;47228;-75
2022/02/19 04:23:09;;;;;;;;;4.00;0.00;;;;;;;;5075573;27;45391;-75
2022/02/19 04:25:34;;;;;;;;;0.75;0.75;;;;;;;;5081720;27;45425;-75
2022/02/19 04:28:04;;;;;;;;;6.50;1.50;;;;;;;;5079338;27;45487;-75
2022/02/19 04:30:29;;;;;;;;;1.00;1.00;;;;;;;;5078731;27;47091;-75
2022/02/19 04:32:56;;;;;;;;;3.50;1.00;;;;;;;;5079456;27;45528;-75
2022/02/19 04:35:29;;;;;;;;;1.00;0.00;;;;;;;;5076273;27;45446;-75
2022/02/19 04:37:54;;;;;;;;;0.00;0.00;;;;;;;;5078344;27;45354;-75
2022/02/19 04:40:19;;;;;;;;;0.25;0.25;;;;;;;;5080480;27;46957;-75
2022/02/19 04:42:45;;;;;;;;;0.00;0.00;;;;;;;;5079151;27;45309;-75
2022/02/19 04:45:10;;;;;;;;;1.00;0.00;;;;;;;;5079150;27;45506;-75
2022/02/19 04:47:35;;;;;;;;;2.00;0.00;;;;;;;;5077786;27;45428;-75
2022/02/19 04:50:01;;;;;;;;;1.00;0.00;;;;;;;;5075983;27;45194;-76
2022/02/19 04:52:26;;;;;;;;;2.00;2.00;;;;;;;;5081158;27;45288;-75
2022/02/19 04:54:51;;;;;;;;;1.00;1.00;;;;;;;;5079065;27;45308;-75
2022/02/19 04:57:16;;;;;;;;;2.50;0.50;;;;;;;;5079060;27;45338;-75
2022/02/19 04:59:41;;;;;;;;;0.00;0.00;;;;;;;;5078153;27;45551;-75
2022/02/19 05:02:07;;;;;;;;;0.00;0.00;;;;;;;;5075378;27;45280;-75
2022/02/19 05:04:32;;;;;;;;;1.75;1.00;;;;;;;;5081016;27;45225;-75
2022/02/19 05:06:57;;;;;;;;;0.25;0.25;;;;;;;;5078623;27;45454;-75
2022/02/19 05:09:22;;;;;;;;;3.00;2.00;;;;;;;;5078644;27;46218;-75
2022/02/19 05:11:47;;;;;;;;;1.00;1.00;;;;;;;;5078050;27;45394;-75
2022/02/19 05:14:13;;;;;;;;;0.75;0.00;;;;;;;;5073720;27;45523;-75
2022/02/19 05:16:38;;;;;;;;;10.25;6.00;;;;;;;;5079786;27;45153;-75
2022/02/19 05:19:03;;;;;;;;;1.50;1.50;;;;;;;;5078605;27;45443;-75
2022/02/19 05:21:28;;;;;;;;;0.50;0.50;;;;;;;;5078850;27;45483;-75
2022/02/19 05:23:53;;;;;;;;;3.00;0.00;;;;;;;;5078568;27;45355;-75
2022/02/19 05:26:19;;;;;;;;;1.50;1.50;;;;;;;;5074506;27;45715;-76
2022/02/19 05:28:44;;;;;;;;;1.00;1.00;;;;;;;;5079402;27;45292;-76
2022/02/19 05:31:11;;;;;;;;;1.75;0.00;;;;;;;;5060062;28;45529;-75
2022/02/19 05:33:37;;;;;;;;;2.00;0.00;;;;;;;;5078174;27;45403;-75
2022/02/19 05:36:02;;;;;;;;;0.25;0.25;;;;;;;;5060006;27;45467;-76
2022/02/19 05:38:27;;;;;;;;;1.00;1.00;;;;;;;;5075603;27;45402;-75
2022/02/19 05:40:56;;;;;;;;;1.50;0.50;;;;;;;;5077179;27;45338;-75
2022/02/19 05:43:21;;;;;;;;;2.50;1.00;;;;;;;;5079609;27;45443;-76
2022/02/19 05:45:48;;;;;;;;;0.75;0.00;;;;;;;;5078063;27;45862;-75
2022/02/19 05:48:13;;;;;;;;;0.75;0.75;;;;;;;;5077634;27;47396;-75
2022/02/19 05:50:38;;;;;;;;;1.75;1.75;;;;;;;;5076690;27;45505;-75
2022/02/19 05:53:04;;;;;;;;;2.00;1.00;;;;;;;;5074447;27;45490;-75
2022/02/19 05:55:29;;;;;;;;;1.50;1.50;;;;;;;;5079082;27;45515;-75
2022/02/19 05:57:55;;;;;;;;;1.50;0.00;;;;;;;;5077221;27;46317;-76
2022/02/19 06:00:20;;;;;;;;;1.25;0.00;;;;;;;;5077089;27;45449;-75
2022/02/19 06:02:45;;;;;;;;;2.50;1.00;;;;;;;;5077179;27;45269;-75
2022/02/19 06:05:10;;;;;;;;;2.00;0.00;;;;;;;;5072770;27;45527;-75
2022/02/19 06:07:36;;;;;;;;;1.50;0.50;;;;;;;;5078801;27;46240;-75
2022/02/19 06:10:01;;;;;;;;;0.75;0.50;;;;;;;;5076764;27;45201;-75
2022/02/19 06:12:27;;;;;;;;;1.50;0.50;;;;;;;;5077355;27;45470;-75
2022/02/19 06:14:52;;;;;;;;;3.00;2.00;;;;;;;;5077234;27;45616;-76
2022/02/19 06:17:17;;;;;;;;;2.75;0.25;;;;;;;;5073070;27;45521;-76
2022/02/19 06:19:42;;;;;;;;;3.25;1.00;;;;;;;;5079116;27;45480;-75
2022/02/19 06:22:09;;;;;;;;;1.00;0.00;;;;;;;;5077095;27;45332;-75
2022/02/19 06:24:35;;;;;;;;;2.50;1.50;;;;;;;;5076763;27;45463;-76
2022/02/19 06:27:00;;;;;;;;;1.25;1.00;;;;;;;;5076323;27;46425;-76
2022/02/19 06:29:26;;;;;;;;;1.00;1.00;;;;;;;;5073997;27;45554;-76
2022/02/19 06:31:51;;;;;;;;;0.75;0.00;;;;;;;;5077058;27;45473;-75
2022/02/19 06:34:16;;;;;;;;;1.50;1.00;;;;;;;;5077695;27;45495;-75
2022/02/19 06:36:41;;;;;;;;;1.25;1.00;;;;;;;;5076553;27;47138;-75
2022/02/19 06:39:06;;;;;;;;;1.75;1.25;;;;;;;;5076511;27;45475;-76
2022/02/19 06:41:32;;;;;;;;;2.00;2.00;;;;;;;;5074630;27;45284;-75
2022/02/19 06:43:57;;;;;;;;;0.00;0.00;;;;;;;;5074904;27;45320;-74
2022/02/19 06:46:22;;;;;;;;;1.00;1.00;;;;;;;;5078372;27;46133;-75
2022/02/19 06:48:48;;;;;;;;;1.25;1.25;;;;;;;;5076333;27;45200;-75
2022/02/19 06:51:13;;;;;;;;;1.75;1.25;;;;;;;;5076734;27;45508;-75
2022/02/19 06:53:39;;;;;;;;;1.00;1.00;;;;;;;;5075142;27;45385;-75
2022/02/19 06:56:04;;;;;;;;;1.75;1.00;;;;;;;;5073332;27;46884;-75
2022/02/19 06:58:30;;;;;;;;;3.00;0.50;;;;;;;;5078524;27;45438;-75
2022/02/19 07:00:55;;;;;;;;;1.25;1.25;;;;;;;;5076426;27;45394;-75
2022/02/19 07:03:21;;;;;;;;;2.00;0.00;;;;;;;;5076898;27;45501;-75
2022/02/19 07:05:51;;;;;;;;;0.00;0.00;;;;;;;;5076415;27;46752;-76
2022/02/19 07:08:16;;;;;;;;;3.75;1.00;;;;;;;;5055926;27;45522;-75
2022/02/19 07:10:41;;;;;;;;;0.50;0.50;;;;;;;;5078544;27;45371;-76
2022/02/19 07:13:06;;;;;;;;;7.50;2.00;;;;;;;;5076329;27;45479;-75
2022/02/19 07:15:32;;;;;;;;;2.00;2.00;;;;;;;;5075831;27;46157;-75
2022/02/19 07:17:58;;;;;;;;;3.50;0.75;;;;;;;;5076390;27;45254;-75
2022/02/19 07:20:23;;;;;;;;;3.75;1.00;;;;;;;;5073432;27;45448;-75
2022/02/19 07:22:49;;;;;;;;;2.25;2.25;;;;;;;;5077004;27;45427;-76
2022/02/19 07:25:14;;;;;;;;;1.00;1.00;;;;;;;;5077193;27;46096;-75
2022/02/19 07:27:41;;;;;;;;;3.50;2.00;;;;;;;;5076041;27;45367;-75
2022/02/19 07:30:07;;;;;;;;;3.50;2.00;;;;;;;;5076732;27;45262;-75
2022/02/19 07:32:34;;;;;;;;;1.75;1.75;;;;;;;;5074830;27;45260;-75
2022/02/19 07:34:59;;;;;;;;;1.00;1.00;;;;;;;;5073857;27;46258;-75
2022/02/19 07:37:24;;;;;;;;;2.00;2.00;;;;;;;;5077821;27;45355;-75
2022/02/19 07:39:53;;;;;;;;;3.75;1.50;;;;;;;;5078679;27;45459;-75
2022/02/19 07:42:18;;;;;;;;;2.25;1.00;;;;;;;;5079801;27;45455;-74
2022/02/19 07:44:43;;;;;;;;;3.25;1.00;;;;;;;;5079426;27;45369;-75
2022/02/19 07:47:08;;;;;;;;;1.50;1.00;;;;;;;;5075466;27;45240;-75
2022/02/19 08:00:29;;;;;;;;;3.00;1.00;;;;;;;;5079194;27;45323;-76
2022/02/19 08:02:55;;;;;;;;;4.00;1.25;;;;;;;;5079399;27;45410;-77
2022/02/19 08:05:20;;;;;;;;;1.25;1.00;;;;;;;;5075143;27;46547;-76
2022/02/19 08:07:45;;;;;;;;;1.00;1.00;;;;;;;;5079766;27;45376;-77
2022/02/19 08:10:10;;;;;;;;;1.00;0.00;;;;;;;;5079600;27;45388;-77
2022/02/19 08:12:36;;;;;;;;;3.00;1.00;;;;;;;;5076641;27;45345;-77
2022/02/19 08:15:01;;;;;;;;;0.75;0.75;;;;;;;;5078735;27;46194;-77
2022/02/19 08:17:27;;;;;;;;;1.00;1.00;;;;;;;;5057448;27;45479;-77
2022/02/19 08:19:53;;;;;;;;;2.75;2.50;;;;;;;;5078780;27;45278;-77
2022/02/19 08:22:18;;;;;;;;;1.00;1.00;;;;;;;;5080097;27;45382;-74
2022/02/19 08:24:43;;;;;;;;;2.00;1.25;;;;;;;;5078089;27;45257;-75
2022/02/19 08:27:09;;;;;;;;;2.00;2.00;;;;;;;;5078985;27;45574;-75
2022/02/19 08:29:34;;;;;;;;;4.75;2.75;;;;;;;;5077115;27;45483;-75
2022/02/19 08:31:59;;;;;;;;;1.00;1.00;;;;;;;;5076578;27;45416;-75
2022/02/19 08:34:24;;;;;;;;;1.25;1.00;;;;;;;;5062446;28;46008;-76
2022/02/19 08:36:55;;;;;;;;;1.00;0.00;;;;;;;;5078704;27;45390;-76
2022/02/19 08:39:21;;;;;;;;;2.75;1.50;;;;;;;;5077633;27;45558;-76
2022/02/19 08:41:47;;;;;;;;;2.50;1.00;;;;;;;;5078465;27;45417;-76
2022/02/19 08:44:12;;;;;;;;;3.50;2.00;;;;;;;;5074217;27;46096;-76
2022/02/19 08:46:38;;;;;;;;;1.75;1.00;;;;;;;;5080603;27;45431;-76
2022/02/19 08:49:03;;;;;;;;;2.50;1.50;;;;;;;;5078411;27;45514;-76
2022/02/19 08:51:28;;;;;;;;;1.50;1.50;;;;;;;;5077950;27;45461;-76
2022/02/19 08:53:54;;;;;;;;;4.00;2.00;;;;;;;;5078168;27;45966;-75
2022/02/19 08:56:19;;;;;;;;;2.75;1.75;;;;;;;;5074694;27;45377;-76
2022/02/19 08:58:45;;;;;;;;;2.00;2.00;;;;;;;;5079875;27;45312;-77
2022/02/19 09:01:10;;;;;;;;;3.25;1.50;;;;;;;;5076785;27;45340;-77
2022/02/19 09:03:35;;;;;;;;;1.00;1.00;;;;;;;;5077876;27;45599;-78
2022/02/19 09:06:01;;;;;;;;;2.75;2.00;;;;;;;;5059590;27;45466;-74
2022/02/19 09:08:26;;;;;;;;;2.50;2.25;;;;;;;;5075025;27;45506;-74
2022/02/19 09:10:51;;;;;;;;;1.50;1.25;;;;;;;;5077346;27;45426;-76
2022/02/19 09:13:16;;;;;;;;;1.25;1.25;;;;;;;;5078084;27;45518;-75
2022/02/19 09:15:42;;;;;;;;;1.00;1.00;;;;;;;;5073976;27;45541;-75
2022/02/19 09:18:07;;;;;;;;;3.50;1.00;;;;;;;;5077243;27;45427;-75
2022/02/19 09:20:33;;;;;;;;;1.00;1.00;;;;;;;;5075819;27;45371;-77
2022/02/19 09:22:58;;;;;;;;;1.25;1.00;;;;;;;;5076128;27;46948;-76
2022/02/19 09:25:23;;;;;;;;;3.75;1.25;;;;;;;;5079585;27;45297;-76
2022/02/19 09:27:49;;;;;;;;;0.00;0.00;;;;;;;;5077880;27;45367;-76
2022/02/19 09:30:14;;;;;;;;;3.50;1.00;;;;;;;;5077446;27;45350;-76
2022/02/19 09:32:40;;;;;;;;;0.00;0.00;;;;;;;;5076262;27;46320;-76
2022/02/19 09:35:05;;;;;;;;;3.50;1.00;;;;;;;;5073719;27;45430;-78
2022/02/19 09:37:32;;;;;;;;;2.00;1.00;;;;;;;;5080081;27;45357;-80
2022/02/19 09:39:57;;;;;;;;;1.25;1.00;;;;;;;;5078023;27;45449;-77
2022/02/19 09:42:23;;;;;;;;;1.00;1.00;;;;;;;;5077333;27;46144;-80
2022/02/19 09:44:48;;;;;;;;;4.50;3.00;;;;;;;;5077311;27;45344;-79
2022/02/19 09:47:14;;;;;;;;;3.00;1.00;;;;;;;;5074231;27;45261;-77
2022/02/19 09:49:39;;;;;;;;;1.50;1.50;;;;;;;;5095198;27;45331;-78
2022/02/19 09:52:05;;;;;;;;;2.00;1.00;;;;;;;;5077158;27;46422;-79
2022/02/19 09:54:30;;;;;;;;;1.75;1.50;;;;;;;;5077458;27;45442;-78
2022/02/19 09:56:55;;;;;;;;;3.75;1.00;;;;;;;;5077843;27;45472;-79
2022/02/19 09:59:20;;;;;;;;;1.25;1.25;;;;;;;;5073541;27;45268;-78
2022/02/19 10:01:59;;;;;;;;;4.00;1.50;;;;;;;;5090327;27;47013;-77
2022/02/19 10:04:25;;;;;;;;;1.50;1.00;;;;;;;;5080783;27;45326;-82
2022/02/19 10:06:52;;;;;;;;;2.50;1.00;;;;;;;;5078634;27;45351;-76
2022/02/19 10:09:18;;;;;;;;;0.50;0.50;;;;;;;;5077852;27;45446;-79
2022/02/19 10:11:44;;;;;;;;;2.75;0.00;;;;;;;;5077804;27;46102;-77
2022/02/19 10:14:30;;;;;;;;;3.25;0.75;;;;;;;;5073178;27;45295;-79
2022/02/19 10:17:07;;;;;;;;;2.00;2.00;;;;;;;;5055509;28;45267;-77
2022/02/19 10:19:49;;;;;;;;;2.00;2.00;;;;;;;;5078567;27;45475;-74
2022/02/19 10:22:15;;;;;;;;;4.00;1.25;;;;;;;;5076971;27;45508;-77
2022/02/19 10:24:43;;;;;;;;;3.00;2.00;;;;;;;;5077391;27;45244;-76
2022/02/19 10:27:09;;;;;;;;;1.00;1.00;;;;;;;;5077497;27;45339;-77
2022/02/19 10:29:54;;;;;;;;;1.75;1.75;;;;;;;;5073717;27;45425;-77
2022/02/19 10:32:20;;;;;;;;;2.00;1.00;;;;;;;;5057677;27;46305;-77
2022/02/19 10:34:56;;;;;;;;;3.00;1.00;;;;;;;;5078452;27;45374;-78
2022/02/19 10:37:25;;;;;;;;;2.00;1.00;;;;;;;;5078287;27;45374;-77
2022/02/19 10:39:50;;;;;;;;;0.00;0.00;;;;;;;;5077063;27;45240;-77
2022/02/19 10:42:15;;;;;;;;;1.75;0.75;;;;;;;;5078349;27;46080;-75
2022/02/19 10:44:41;;;;;;;;;0.00;0.00;;;;;;;;5076889;27;45208;-74
2022/02/19 10:47:19;;;;;;;;;2.25;1.00;;;;;;;;5074402;27;45451;-78
2022/02/19 10:50:05;;;;;;;;;1.00;1.00;;;;;;;;5081338;27;45479;-77
2022/02/19 10:52:30;;;;;;;;;2.00;1.00;;;;;;;;5082925;27;46175;-84
2022/02/19 10:55:06;;;;;;;;;2.00;0.00;;;;;;;;5086379;27;45326;-81
2022/02/19 10:57:35;;;;;;;;;1.00;1.00;;;;;;;;5084046;27;45305;-77
2022/02/19 11:00:08;;;;;;;;;1.50;0.50;;;;;;;;5075563;27;45390;-80
2022/02/19 11:02:34;;;;;;;;;1.50;1.50;;;;;;;;5079138;27;46113;-80
2022/02/19 11:04:59;;;;;;;;;1.50;0.50;;;;;;;;5072597;27;45484;-81
2022/02/19 11:07:25;;;;;;;;;2.25;1.00;;;;;;;;5080947;27;45417;-85
2022/02/19 11:09:50;;;;;;;;;0.25;0.25;;;;;;;;5087398;27;45456;-84
2022/02/19 11:12:16;;;;;;;;;1.25;0.00;;;;;;;;5086237;27;46226;-78
2022/02/19 11:14:43;;;;;;;;;1.25;1.00;;;;;;;;5084606;27;45473;-87
2022/02/19 11:17:12;;;;;;;;;1.00;1.00;;;;;;;;5087272;27;45560;-81
2022/02/19 11:19:37;;;;;;;;;0.00;0.00;;;;;;;;5070750;27;45668;-83
2022/02/19 11:22:03;;;;;;;;;0.00;0.00;;;;;;;;5073039;27;46058;-83
2022/02/19 11:24:29;;;;;;;;;0.25;0.25;;;;;;;;5062822;27;45215;-78
2022/02/19 11:26:58;;;;;;;;;1.00;1.00;;;;;;;;5068844;27;45463;-80
2022/02/19 11:29:24;;;;;;;;;0.50;0.00;;;;;;;;5076937;27;46272;-81
2022/02/19 11:31:52;;;;;;;;;3.50;1.25;;;;;;;;5070226;27;45962;-82
2022/02/19 11:34:20;;;;;;;;;1.00;1.00;;;;;;;;5060199;27;45312;-80
2022/02/19 11:36:45;;;;;;;;;5.75;4.00;;;;;;;;5069708;27;45276;-79
2022/02/19 11:39:10;;;;;;;;;1.00;1.00;;;;;;;;5072228;27;45446;-80
2022/02/19 11:41:40;;;;;;;;;0.75;0.75;;;;;;;;5070894;27;45790;-80
2022/02/19 11:44:14;;;;;;;;;1.00;1.00;;;;;;;;5081346;27;45320;-80
2022/02/19 11:46:39;;;;;;;;;1.25;0.00;;;;;;;;5075562;27;45432;-85
2022/02/19 11:49:18;;;;;;;;;1.00;1.00;;;;;;;;5073906;27;45603;-85
2022/02/19 11:51:43;;;;;;;;;1.50;1.00;;;;;;;;5065330;27;45367;-79
2022/02/19 11:54:11;;;;;;;;;2.25;2.25;;;;;;;;5057855;27;45279;-77
2022/02/19 11:56:38;;;;;;;;;1.50;0.50;;;;;;;;5070645;27;45489;-75
2022/02/19 11:59:05;;;;;;;;;0.25;0.25;;;;;;;;5054693;27;45449;-77
2022/02/19 12:01:31;;;;;;;;;2.50;2.50;;;;;;;;5071905;27;46031;-79
2022/02/19 12:04:15;;;;;;;;;0.00;0.00;;;;;;;;5087401;27;45707;-77
2022/02/19 12:06:41;;;;;;;;;3.00;1.00;;;;;;;;5074426;27;45489;-80
2022/02/19 12:09:08;;;;;;;;;1.00;1.00;;;;;;;;5077948;27;45269;-81
2022/02/19 12:11:54;;;;;;;;;2.50;1.25;;;;;;;;5075533;27;46366;-78
2022/02/19 12:14:57;;;;;;;;;1.75;0.50;;;;;;;;5056481;27;45540;-82
2022/02/19 12:17:39;;;;;;;;;2.00;0.50;;;;;;;;4989587;28;45574;-83
2022/02/19 12:20:05;;;;;;;;;1.00;1.00;;;;;;;;4993499;28;45437;-77
2022/02/19 12:22:30;;;;;;;;;0.50;0.50;;;;;;;;4998446;28;45587;-82
2022/02/19 12:24:55;;;;;;;;;2.00;2.00;;;;;;;;5005382;28;45413;-82
2022/02/19 12:27:21;;;;;;;;;1.00;0.00;;;;;;;;5002679;28;45576;-82
2022/02/19 12:29:50;;;;;;;;;1.50;0.00;;;;;;;;5005922;28;45516;-83
2022/02/19 12:32:20;;;;;;;;;2.00;2.00;;;;;;;;4977148;28;46662;-78
2022/02/19 12:34:49;;;;;;;;;8.75;7.75;;;;;;;;5013278;28;45348;-83
2022/02/19 12:37:14;;;;;;;;;0.00;0.00;;;;;;;;4999502;28;45572;-82
2022/02/19 12:39:43;;;;;;;;;0.00;0.00;;;;;;;;5002934;28;45524;-83
2022/02/19 12:42:15;;;;;;;;;0.00;0.00;;;;;;;;5001688;28;46111;-81
2022/02/19 12:44:40;;;;;;;;;0.50;0.50;;;;;;;;5009803;28;45326;-82
2022/02/19 12:47:06;;;;;;;;;0.50;0.50;;;;;;;;5004426;28;45542;-82
2022/02/19 12:49:32;;;;;;;;;0.75;0.75;;;;;;;;5011182;28;45489;-82
2022/02/19 12:51:58;;;;;;;;;2.75;1.75;;;;;;;;5072761;27;47173;-81
2022/02/19 12:54:34;;;;;;;;;0.00;0.00;;;;;;;;5085824;27;45519;-81
2022/02/19 12:57:00;;;;;;;;;0.00;0.00;;;;;;;;5087804;27;45614;-82
2022/02/19 12:59:31;;;;;;;;;0.00;0.00;;;;;;;;5078706;27;45478;-82
2022/02/19 13:02:00;;;;;;;;;0.75;0.50;;;;;;;;5076954;27;46196;-81
2022/02/19 13:04:33;;;;;;;;;0.50;0.50;;;;;;;;5088702;27;45299;-78
2022/02/19 13:06:58;;;;;;;;;2.75;1.00;;;;;;;;5075760;27;45779;-80
2022/02/19 13:09:24;;;;;;;;;0.00;0.00;;;;;;;;5089284;27;45373;-80
2022/02/19 13:11:52;;;;;;;;;2.00;1.00;;;;;;;;5078084;27;46398;-79
2022/02/19 13:14:17;;;;;;;;;0.00;0.00;;;;;;;;5072611;27;45467;-76
2022/02/19 13:17:02;;;;;;;;;2.25;0.00;;;;;;;;5077021;27;45554;-79
2022/02/19 13:19:29;;;;;;;;;0.00;0.00;;;;;;;;5056405;28;45323;-77
2022/02/19 13:22:08;;;;;;;;;1.25;0.25;;;;;;;;5061124;27;46576;-81
2022/02/19 13:24:35;;;;;;;;;1.50;0.75;;;;;;;;5077159;27;45387;-75
2022/02/19 13:27:10;;;;;;;;;1.00;1.00;;;;;;;;5048881;28;45455;-78
2022/02/19 13:29:36;;;;;;;;;0.00;0.00;;;;;;;;5071353;27;45345;-77
2022/02/19 13:32:01;;;;;;;;;1.00;1.00;;;;;;;;5057114;27;46522;-77
2022/02/19 13:34:27;;;;;;;;;1.00;0.25;;;;;;;;5064019;27;45685;-83
2022/02/19 13:36:52;;;;;;;;;0.50;0.50;;;;;;;;5041794;28;45405;-85
2022/02/19 13:39:20;;;;;;;;;1.50;0.50;;;;;;;;5060190;27;45503;-82
2022/02/19 13:41:49;;;;;;;;;1.00;0.75;;;;;;;;5056539;28;45851;-76
2022/02/19 13:44:14;;;;;;;;;0.50;0.00;;;;;;;;5067746;28;45433;-85
2022/02/19 13:46:40;;;;;;;;;2.00;0.00;;;;;;;;5060224;28;45333;-85
2022/02/19 13:49:05;;;;;;;;;1.50;0.25;;;;;;;;5068556;27;45392;-85
2022/02/19 13:51:32;;;;;;;;;1.00;0.75;;;;;;;;5067764;27;47134;-85
2022/02/19 13:54:12;;;;;;;;;0.50;0.00;;;;;;;;5060867;28;45351;-84
2022/02/19 13:56:38;;;;;;;;;0.75;0.00;;;;;;;;5062240;27;45421;-85
2022/02/19 13:59:05;;;;;;;;;2.00;1.00;;;;;;;;5076323;27;45842;-84
2022/02/19 14:01:40;;;;;;;;;0.50;0.50;;;;;;;;5078206;27;46186;-85
2022/02/19 14:04:07;;;;;;;;;0.50;0.25;;;;;;;;5078874;27;45308;-84
2022/02/19 14:06:36;;;;;;;;;0.25;0.25;;;;;;;;5078243;27;45231;-86
2022/02/19 14:09:17;;;;;;;;;3.00;2.00;;;;;;;;5077507;27;45406;-85
2022/02/19 14:11:53;;;;;;;;;3.00;1.25;;;;;;;;5076165;27;47508;-85
2022/02/19 14:14:22;;;;;;;;;1.00;1.00;;;;;;;;5058426;27;45544;-84
2022/02/19 14:16:55;;;;;;;;;2.75;2.75;;;;;;;;5078789;27;45485;-83
2022/02/19 14:19:21;;;;;;;;;0.75;0.75;;;;;;;;5077266;27;45439;-84
2022/02/19 14:21:46;;;;;;;;;3.00;1.25;;;;;;;;5077583;27;45673;-84
2022/02/19 14:24:11;;;;;;;;;2.00;1.00;;;;;;;;5079680;27;45452;-83
2022/02/19 14:26:37;;;;;;;;;1.50;1.00;;;;;;;;5089392;27;45372;-83
2022/02/19 14:29:02;;;;;;;;;1.00;1.00;;;;;;;;5074831;27;45472;-82
2022/02/19 14:31:28;;;;;;;;;1.50;1.50;;;;;;;;5079370;27;46372;-84
2022/02/19 14:33:53;;;;;;;;;0.50;0.00;;;;;;;;5077316;27;45550;-83
2022/02/19 14:36:21;;;;;;;;;2.75;0.75;;;;;;;;5076334;27;45343;-82
2022/02/19 14:38:46;;;;;;;;;2.75;1.00;;;;;;;;5067135;27;45399;-79
2022/02/19 14:41:12;;;;;;;;;1.50;1.50;;;;;;;;5090976;27;46463;-84
2022/02/19 14:43:37;;;;;;;;;0.75;0.75;;;;;;;;5082665;27;45317;-84
2022/02/19 14:46:03;;;;;;;;;1.00;1.00;;;;;;;;5080771;27;45279;-84
2022/02/19 14:48:29;;;;;;;;;3.00;1.75;;;;;;;;5080637;27;45331;-83
2022/02/19 14:50:56;;;;;;;;;2.00;2.00;;;;;;;;5077761;27;46757;-83